SKMDSKBQ

Guest
Details From SKMD - Medellin Olaya Herrera
To SKBQ - Ernesto Cortissoz
Flight Number -
Tags generated
Created
Modified
Stats Distance 288 nm / 533 km
Max Altitude 33,700 ft / 10,272 m
Waypoints 4
Social Downloads 1
Likes 0
Share VATSIM

Download

Looking for another format? Having issues loading an existing format? Contact us
Advertisement - Login to hide

Notes

Basic altitude profile: - Ascent Rate: 2500ft/min - Ascent Speed: 250kts - Cruise Altitude: 35000ft - Cruise Speed: 420kts - Descent Rate: 1500ft/min - Descent Speed: 250kts Options: - Use NATs: yes - Use PACOTS: yes - Use low airways: yes - Use high airways: yes

Route

SKMD ROPIN W3 MGN SKBQ

ID Type Via Altitude Latitude Longitude Leg Dist Tot Dist Heading (true) Name
O SKMD APT - 0 ft / 0 m 6.21996˚ -75.59052˚ - 0 nm - Medellin Olaya Herrera
ROPIN FIX - 33,700 ft / 10,272 m 7.68528˚ -75.00889˚ 94 nm 94 nm 21° / 22° -
MGN VOR W3 (AWY-LO) 19,600 ft / 5,974 m 9.28722˚ -74.84694˚ 96 nm 191 nm 6° / 6° MAGANGUE VOR-DME
O SKBQ APT - 0 ft / 0 m 10.88959˚ -74.78082˚ 96 nm 287 nm 2° / 2° Ernesto Cortissoz

Altitude Profile

Advertisement - Login to hide

Weather


0- 5 10 15 20 25 30 35+ Temperature / ° C

Clouds and Precipitation
Forecast for 2017-12-17 00:00 UTC. Updated 2 hours ago

Ground ~20,000 ft ~40,000 ft Winds

SKMD

Details ICAO SKMD (EOH)
Name Medellin Olaya Herrera
Region Colombia
Timezone America/Bogota (UTC-5.0)
Stats Elevation 4,940 ft / 1,506 m (AMSL)
Location 6.219958° -75.590519°
Runways 1
Magnetic Variation 6.530° W

METAR

SKMD 162200Z 05008KT 9999 SCT035 27/14 A3002

Decode

TAF

Not found

Departure Runways

ID Width Length Bearing (true) Bearing (mag) Surface Threshold Offset Overrun Length
02 148 ft / 45 m 8,324 ft / 2,537 m 10.66° 17.19° Asphalt 1,316 ft / 401 m 0 ft / 0 m
20 148 ft / 45 m 8,324 ft / 2,537 m 190.66° 197.19° Asphalt 1,012 ft / 308 m 0 ft / 0 m

SKBQ

Details ICAO SKBQ (BAQ)
Name Ernesto Cortissoz
Region Colombia
Timezone America/Bogota (UTC-5.0)
Stats Elevation 98 ft / 30 m (AMSL)
Location 10.889589° -74.780820°
Runways 1
Magnetic Variation 7.728° W

METAR

SKBQ 162200Z 02020KT CAVOK 29/24 A2975

Decode

TAF

TAF SKBQ 161100Z 1612/1712 03012KT 9999 FEW020 BECMG 1617/1618 CAVOK TX33/1618Z TN24/1711Z

Decode

Destination Runways

ID Width Length Bearing (true) Bearing (mag) Surface Threshold Offset Overrun Length
05 148 ft / 45 m 9,863 ft / 3,006 m 40.09° 47.82° Concrete 0 ft / 0 m 105 ft / 32 m
23 148 ft / 45 m 9,863 ft / 3,006 m 220.09° 227.82° Concrete 0 ft / 0 m 0 ft / 0 m

Approach Navaids

Runway Type Ident Frequency Range Bearing (true) Bearing (mag) Slope Elevation
05 Localiser IBAQ 109.90 MHz 18 nm / 33 km 39.98° 47.71° - 98 ft / 30 m (AMSL)
05 Glidescope IBAQ 109.90 MHz 10 nm / 19 km 40.09° 47.82° 3.00° 98 ft / 30 m (AMSL)

Popular Alternatives